Meath Environmental Platform

Observations for Trim Market St

Time AQI Temp °C Hum % Pres Pa CO μg/m³ H₂S μg/m³ NO μg/m³ NO₂ μg/m³ O₃ μg/m³ SO₂ μg/m³ PM1 μg/m³ PM2.5 μg/m³ PM10 μg/m³
Tuesday 18 August 2026
09:36 2 21.1 64 56,909 0.08 0 3.68 9.22 55.16 0 0 1.86 3.55
09:35 2 21 64 56,872 0.08 0 3.72 10.24 54.46 0 0 1.85 2.89
09:33 2 20.9 64 56,816 0.05 0 3.51 9.68 52.23 0 0 1.84 2.9
09:31 2 20.8 64 56,713 0.1 0 3.29 9.12 51.96 0 0 1.83 2.91
09:23 2 20.5 65 56,416 0.02 0 2.79 6.83 56.91 0 0 1.3 3.6
09:22 2 20.5 66 56,375 0.06 0 2.72 8.38 54.15 0 0 1.3 2.3
09:19 2 20.4 66 56,238 0.08 0 2.44 6.22 54.38 0 0.71 2.28 3.61
09:17 2 20.4 66 56,173 0.03 0 2.6 7.17 56.1 0 0 1.79 3.61
09:13 2 20.4 65 56,193 0.02 0 2.59 5.99 56.19 0 0 1.3 2.3
09:12 2 20.4 65 56,170 0.01 0 2.75 5.37 55.02 0 0 1.3 2.3
09:11 2 20.4 65 56,154 0 0 2.79 5.09 56.44 0 0 1.3 2.3
09:10 2 20.4 66 56,145 0.05 0 2.83 5.09 54.63 0 0 1.3 2.3
09:09 2 20.4 66 56,131 0 0 2.82 5.98 56.09 0 0 1.3 2.3
09:08 2 20.5 66 56,160 0 0 2.76 6.46 53.63 0 0 1.3 2.3
09:07 2 20.5 66 56,178 0 0 2.83 6.58 54.33 0 0 1.79 3.61
09:06 2 20.5 66 56,213 0 0 2.74 7.41 57.54 0 0.71 2.77 4.26
09:05 2 20.5 65 56,260 0 0 2.9 6.58 56.69 0 0.71 2.78 4.91
09:04 2 20.5 65 56,332 0.02 0 2.98 5.77 56.44 0 0 1.3 2.3
09:03 2 20.6 65 56,367 0.14 0 3.08 6.69 53.48 0 0 1.3 2.3
09:02 2 20.6 65 56,390 0.17 0 2.74 6.94 54.11 0 0 1.3 2.3